Terminal Aerodrome Forecast
Issued by NWS

Home | Current Version | Previous Version | Text Only | Print | Product List | Glossary On
Versions: 1 2 3 4 5 6 7 8 9 10 11 12 13 14 15 16 17 18 19 20 21 22 23 24 25 26 27
000
FTUS43 KSGF 241300 AAA
TAFJLN
TAF AMD
KJLN 241329Z 2413/2512 14012KT 6SM -SHRA SCT010 OVC060
      TEMPO 2414/2417 3SM SHRA BR OVC010
     FM241800 15011KT 6SM -SHRA BR VCTS SCT020 OVC035CB
      TEMPO 2422/2501 2SM -TSRA OVC020CB
     FM250100 20006KT 5SM -SHRA VCTS BKN012CB OVC030
     FM250500 18006KT P6SM FEW040 SCT250=

USA.gov is the U.S. government's official web portal to all federal, state and local government web resources and services.